Terminal Aerodrome Forecast
Issued by NWS Knoxville/Tri Cities, TN

Home | Current Version | Previous Version | Text Only | Print | Product List | Glossary On
Versions: 1 2 3 4 5 6 7 8 9 10 11 12 13 14 15 16
000
FTUS44 KMRX 271720
TAFTRI
TAF
KTRI 271720Z 2718/2818 25006KT P6SM VCTS SCT050CB
     FM280300 00000KT P6SM SCT040 BKN100
     FM281200 24005KT P6SM BKN040=

USA.gov is the U.S. government's official web portal to all federal, state and local government web resources and services.